Ana Sayfa
METAR-TAF:

METAR-TAF

Havaalanları :

Tôlanaro, Madagaskar

Enlem: 25-02S, Boylam: 046-57E, yükseklik: 8 m

Güncel hava durumu gözlemi

Rapor saat 07:00 UTC de 46 dakika önce yapıldı.
Rüzgar doğu/kuzeydoğudan 23 kt ve 33 kt'a kadar ani rüzgarlar
Sıcaklık 28°C
Nem 58%
Basınç 1018 hPa
Görüş mesafesi 10 km veya daha fazla
1500 m altında bulut yok ve kümülonimbus yok

METAR: FMSD 250700Z 06023G33KT CAVOK 28/19 Q1018

Saat: 10:46 (07:46 UTC)

Tahmin

Rapor saat 05:00 UTC de 2 saat ve 46 dakika önce yapıldı.
Ayın 25'si saat 06 UTC'den ayın 26'si saat 06 UTC'ye kadar geçerli Tahmin
Rüzgar doğu/kuzeydoğudan 15 kt
Görüş mesafesi 10 km veya daha fazla
2000 ft yükseklikte az bulutlu
Olasılık 40%
ayın 25'si saat 08 UTC'den ayın 25'si saat 14 UTC'ye kadar
Rüzgar doğu/kuzeydoğudan 20 kt ve 30 kt'a kadar ani rüzgarlar

TAF: FMSD 250500Z 2506/2606 06015KT 9999 FEW020 PROB40 2508/2514 06020G30KT

4.000'den fazla havaalanı için hava durumu gözlemleri ve tahminleri (METAR ve TAF raporları).

Kullanılabilir istasyonlar harita üzerinde sarı ve kırmızı noktalarla gösterilir.

İstasyonun adını görmek için fareyi noktanın üzerinde gezdirin.

Sonrasında hava gözlem ve tahminlerini görmek için tıklayın.

Haritayı değiştirmek için: yaklaştırmak için siyah artı işaretli yeşil düğmeye ve uzaklaştırmak için de eksi işaretli düğmeye hızla tıklayın; bitişik haritalar için yeşil okları kullanın.


METAR-TAF: